Time;durP1;ratioP1;P1;durP2;ratioP2;P2;SDS_P1;SDS_P2;PMS_P1;PMS_P2;Temp;Humidity;BMP_temperature;BMP_pressure;BME280_temperature;BME280_humidity;BME280_pressure;Samples;Min_cycle;Max_cycle;Signal;HPM_P1;HPM_P2
2021/11/01 00:02:50;;;;;;;39.13;24.33;;;;;;;;;;4984023;23;20239;-76
2021/11/01 00:05:55;;;;;;;36.63;23.67;;;;;;;;;;5016130;28;20193;-75
2021/11/01 00:09:00;;;;;;;40.77;24.93;;;;;;;;;;5015204;28;20185;-75
2021/11/01 00:12:04;;;;;;;37.07;23.40;;;;;;;;;;4997170;28;20226;-75
2021/11/01 00:15:09;;;;;;;34.77;23.07;;;;;;;;;;5015344;28;20549;-75
2021/11/01 00:18:13;;;;;;;37.23;24.30;;;;;;;;;;5015271;28;20710;-75
2021/11/01 00:21:17;;;;;;;36.50;23.50;;;;;;;;;;5003804;28;20744;-76
2021/11/01 00:24:21;;;;;;;36.33;23.63;;;;;;;;;;5014929;28;20194;-75
2021/11/01 00:27:25;;;;;;;36.73;23.43;;;;;;;;;;5015729;28;20177;-75
2021/11/01 00:30:29;;;;;;;37.23;22.77;;;;;;;;;;5014718;28;20196;-75
2021/11/01 00:33:34;;;;;;;34.60;22.50;;;;;;;;;;5014294;28;20210;-75
2021/11/01 00:36:38;;;;;;;40.00;25.83;;;;;;;;;;5014146;28;20197;-76
2021/11/01 00:39:42;;;;;;;35.00;23.57;;;;;;;;;;5014790;28;20201;-76
2021/11/01 00:42:46;;;;;;;35.20;22.73;;;;;;;;;;4983787;28;20209;-75
2021/11/01 00:45:50;;;;;;;41.37;23.83;;;;;;;;;;4996091;28;20195;-76
2021/11/01 00:48:54;;;;;;;40.87;24.30;;;;;;;;;;4982515;28;20178;-75
2021/11/01 00:52:00;;;;;;;36.37;24.33;;;;;;;;;;5013337;28;20722;-75
2021/11/01 00:55:08;;;;;;;39.83;26.07;;;;;;;;;;5014036;28;20209;-75
2021/11/01 00:58:12;;;;;;;43.70;25.23;;;;;;;;;;5002416;28;20702;-75
2021/11/01 01:01:17;;;;;;;37.00;24.27;;;;;;;;;;4989418;28;20238;-75
2021/11/01 01:04:24;;;;;;;36.57;23.33;;;;;;;;;;5012572;28;20220;-75
2021/11/01 01:07:28;;;;;;;35.23;23.53;;;;;;;;;;5013636;28;20555;-75
2021/11/01 01:10:32;;;;;;;36.83;25.43;;;;;;;;;;5013270;28;20568;-75
2021/11/01 01:13:37;;;;;;;40.30;26.77;;;;;;;;;;5014463;28;20185;-75
2021/11/01 01:16:45;;;;;;;40.00;24.93;;;;;;;;;;5014789;28;20185;-75
2021/11/01 01:20:06;;;;;;;36.83;24.37;;;;;;;;;;5013297;28;20186;-76
2021/11/01 01:23:11;;;;;;;37.73;24.27;;;;;;;;;;4995027;28;20285;-75
2021/11/01 01:26:16;;;;;;;40.33;23.93;;;;;;;;;;4997743;28;20208;-75
2021/11/01 01:29:20;;;;;;;36.70;24.47;;;;;;;;;;5013091;28;20210;-75
2021/11/01 01:32:24;;;;;;;34.97;23.60;;;;;;;;;;4994250;28;20299;-75
2021/11/01 01:35:30;;;;;;;36.43;23.30;;;;;;;;;;4994837;28;20193;-75
2021/11/01 01:38:35;;;;;;;37.17;24.17;;;;;;;;;;5013508;28;20228;-75
2021/11/01 01:41:46;;;;;;;35.20;23.23;;;;;;;;;;5013793;28;20232;-75
2021/11/01 01:44:51;;;;;;;39.97;24.87;;;;;;;;;;5014152;28;20692;-75
2021/11/01 01:47:56;;;;;;;38.17;24.10;;;;;;;;;;5013043;28;20208;-75
2021/11/01 01:51:00;;;;;;;37.90;23.33;;;;;;;;;;5013342;28;20236;-75
2021/11/01 01:54:04;;;;;;;36.03;24.37;;;;;;;;;;5013542;28;20190;-75
2021/11/01 01:57:08;;;;;;;38.50;24.50;;;;;;;;;;5012995;28;20654;-75
2021/11/01 02:00:28;;;;;;;37.93;23.63;;;;;;;;;;5012414;28;20206;-75
2021/11/01 02:03:33;;;;;;;37.23;23.10;;;;;;;;;;5007854;28;20220;-75
2021/11/01 02:06:49;;;;;;;32.93;22.70;;;;;;;;;;5012956;28;20208;-75
2021/11/01 02:10:12;;;;;;;46.00;26.27;;;;;;;;;;5012765;28;20193;-75
2021/11/01 02:13:20;;;;;;;38.70;24.47;;;;;;;;;;4993428;28;20190;-75
2021/11/01 02:16:29;;;;;;;38.17;24.53;;;;;;;;;;4997698;28;20205;-75
2021/11/01 02:19:45;;;;;;;36.47;24.10;;;;;;;;;;5013310;28;20197;-75
2021/11/01 02:23:23;;;;;;;37.40;24.00;;;;;;;;;;4982360;28;20193;-75
2021/11/01 02:26:28;;;;;;;33.33;22.60;;;;;;;;;;4986667;28;20197;-75
2021/11/01 02:29:32;;;;;;;37.90;23.60;;;;;;;;;;5001448;28;20212;-75
2021/11/01 02:32:41;;;;;;;33.93;22.07;;;;;;;;;;5012690;28;20749;-75
2021/11/01 02:35:46;;;;;;;40.20;23.10;;;;;;;;;;5012241;28;20206;-75
2021/11/01 02:38:50;;;;;;;38.07;22.83;;;;;;;;;;5013460;28;20695;-75
2021/11/01 02:41:55;;;;;;;38.27;23.80;;;;;;;;;;4998440;28;20224;-76
2021/11/01 02:45:12;;;;;;;37.47;23.93;;;;;;;;;;5013815;28;20177;-75
2021/11/01 02:48:18;;;;;;;36.23;22.63;;;;;;;;;;5012271;28;20560;-75
2021/11/01 02:51:24;;;;;;;40.87;24.73;;;;;;;;;;5012001;28;20228;-75
2021/11/01 02:54:28;;;;;;;35.70;22.73;;;;;;;;;;5013122;28;20210;-75
2021/11/01 02:57:33;;;;;;;36.47;23.37;;;;;;;;;;5012152;28;20212;-75
2021/11/01 03:00:37;;;;;;;35.43;22.53;;;;;;;;;;5012230;28;20240;-75
2021/11/01 03:03:43;;;;;;;33.27;21.33;;;;;;;;;;5012181;28;20216;-75
2021/11/01 03:06:47;;;;;;;31.53;21.13;;;;;;;;;;4992351;28;20209;-75
2021/11/01 03:09:52;;;;;;;38.07;23.70;;;;;;;;;;5009722;28;20203;-75
2021/11/01 03:12:56;;;;;;;34.53;22.17;;;;;;;;;;5015115;28;20198;-75
2021/11/01 03:16:06;;;;;;;32.97;21.30;;;;;;;;;;5017275;28;21391;-75
2021/11/01 03:19:18;;;;;;;37.83;23.50;;;;;;;;;;5015828;28;20226;-75
2021/11/01 03:22:32;;;;;;;34.87;21.57;;;;;;;;;;4986581;28;20236;-75
2021/11/01 03:25:48;;;;;;;37.40;23.13;;;;;;;;;;5016161;28;20205;-75
2021/11/01 03:28:55;;;;;;;32.73;20.87;;;;;;;;;;5016864;28;20194;-75
2021/11/01 03:32:01;;;;;;;32.23;19.33;;;;;;;;;;5016243;28;20226;-75
2021/11/01 03:35:06;;;;;;;29.93;19.87;;;;;;;;;;5016949;28;20188;-75
2021/11/01 03:38:13;;;;;;;32.63;20.60;;;;;;;;;;5015256;28;20222;-75
2021/11/01 03:41:18;;;;;;;33.07;21.70;;;;;;;;;;5016208;28;20231;-75
2021/11/01 03:44:28;;;;;;;30.93;20.83;;;;;;;;;;5015908;28;20177;-75
2021/11/01 03:47:38;;;;;;;33.63;21.30;;;;;;;;;;5015420;28;20197;-75
2021/11/01 03:50:47;;;;;;;36.43;22.97;;;;;;;;;;5015240;28;20232;-75
2021/11/01 03:53:51;;;;;;;33.47;20.03;;;;;;;;;;5015085;28;20681;-75
2021/11/01 03:56:57;;;;;;;30.73;19.67;;;;;;;;;;5015203;28;20198;-75
2021/11/01 04:00:06;;;;;;;30.20;19.30;;;;;;;;;;5015436;28;20686;-75
2021/11/01 04:03:11;;;;;;;31.73;21.50;;;;;;;;;;5015265;28;20696;-74
2021/11/01 04:06:18;;;;;;;37.77;24.63;;;;;;;;;;5015163;28;20193;-75
2021/11/01 04:09:22;;;;;;;34.70;22.30;;;;;;;;;;5015686;28;20193;-75
2021/11/01 04:12:26;;;;;;;35.13;22.77;;;;;;;;;;5003673;28;20232;-75
2021/11/01 04:15:36;;;;;;;39.27;23.70;;;;;;;;;;5014606;28;20196;-75
2021/11/01 04:18:53;;;;;;;32.13;21.77;;;;;;;;;;5015613;28;20242;-75
2021/11/01 04:21:58;;;;;;;30.00;19.67;;;;;;;;;;5004017;28;20233;-75
2021/11/01 04:25:03;;;;;;;31.40;19.70;;;;;;;;;;5003871;28;20212;-75
2021/11/01 04:28:07;;;;;;;30.77;20.97;;;;;;;;;;4995280;28;20205;-75
2021/11/01 04:31:17;;;;;;;32.43;20.73;;;;;;;;;;5013127;28;20233;-75
2021/11/01 04:34:33;;;;;;;35.67;21.23;;;;;;;;;;5014444;28;20190;-75
2021/11/01 04:37:39;;;;;;;30.30;19.33;;;;;;;;;;5015100;28;20210;-75
2021/11/01 04:44:41;;;;;;;31.33;19.47;;;;;;;;;;5003579;28;20277;-75
2021/11/01 04:54:24;;;;;;;30.93;19.07;;;;;;;;;;5014841;28;20194;-75
2021/11/01 04:57:28;;;;;;;25.27;18.13;;;;;;;;;;5014753;28;20204;-75
2021/11/01 05:00:32;;;;;;;27.73;18.00;;;;;;;;;;5015309;28;20192;-75
2021/11/01 05:03:41;;;;;;;30.47;19.97;;;;;;;;;;5013789;28;20312;-75
2021/11/01 05:06:52;;;;;;;29.73;19.17;;;;;;;;;;4995631;28;20199;-75
2021/11/01 05:13:29;;;;;;;28.23;18.00;;;;;;;;;;5010053;28;20694;-75
2021/11/01 05:19:48;;;;;;;29.33;17.93;;;;;;;;;;5014606;28;20221;-75
2021/11/01 05:26:03;;;;;;;26.03;18.00;;;;;;;;;;4995493;28;20212;-75
2021/11/01 05:29:09;;;;;;;29.83;18.70;;;;;;;;;;4993868;28;20210;-75
2021/11/01 05:32:16;;;;;;;32.73;19.73;;;;;;;;;;4993999;28;20233;-75
2021/11/01 05:35:21;;;;;;;29.20;19.83;;;;;;;;;;5012338;28;20205;-75
2021/11/01 05:38:25;;;;;;;30.73;20.83;;;;;;;;;;5014130;28;20210;-75
2021/11/01 05:41:30;;;;;;;29.50;19.53;;;;;;;;;;5013975;28;20232;-75
2021/11/01 05:44:34;;;;;;;30.47;20.23;;;;;;;;;;5013134;28;20659;-75
2021/11/01 05:47:40;;;;;;;30.37;18.77;;;;;;;;;;5014192;28;20189;-75
2021/11/01 05:50:45;;;;;;;28.87;18.90;;;;;;;;;;5014397;28;20289;-75
2021/11/01 05:53:57;;;;;;;30.50;19.03;;;;;;;;;;5013039;28;20683;-75
2021/11/01 05:57:13;;;;;;;32.67;20.10;;;;;;;;;;5013453;28;20566;-75
2021/11/01 06:00:32;;;;;;;29.57;18.87;;;;;;;;;;5013124;28;20576;-75
2021/11/01 06:13:37;;;;;;;31.77;21.00;;;;;;;;;;4955895;28;20203;-75
2021/11/01 06:16:42;;;;;;;28.10;20.20;;;;;;;;;;5009181;28;20565;-75
2021/11/01 06:19:46;;;;;;;26.97;18.60;;;;;;;;;;5008710;28;20232;-74
2021/11/01 06:22:52;;;;;;;29.03;19.27;;;;;;;;;;5009518;28;20196;-74
2021/11/01 06:25:57;;;;;;;39.07;26.60;;;;;;;;;;5009487;28;20220;-75
2021/11/01 06:29:06;;;;;;;51.60;31.77;;;;;;;;;;5007049;28;20214;-75
2021/11/01 06:42:12;;;;;;;40.73;27.10;;;;;;;;;;5009466;28;20225;-75
2021/11/01 06:52:32;;;;;;;40.63;26.93;;;;;;;;;;5012846;28;20227;-75
2021/11/01 06:55:54;;;;;;;41.73;27.40;;;;;;;;;;5005593;28;20200;-75
2021/11/01 07:16:01;;;;;;;40.20;26.27;;;;;;;;;;4992432;28;20199;-75
2021/11/01 07:22:58;;;;;;;42.10;25.80;;;;;;;;;;5012034;28;20232;-75
2021/11/01 07:29:58;;;;;;;47.10;29.07;;;;;;;;;;5011512;28;20568;-75
2021/11/01 09:20:04;;;;;;;8.80;5.60;;;;;;;;;;5014981;28;20526;-72
2021/11/01 09:36:17;;;;;;;9.30;5.20;;;;;;;;;;5002910;28;20190;-72
2021/11/01 09:42:43;;;;;;;6.30;4.40;;;;;;;;;;5013492;28;20221;-72
2021/11/01 09:45:47;;;;;;;8.17;4.70;;;;;;;;;;4997426;28;20198;-73
2021/11/01 09:49:27;;;;;;;5.57;3.50;;;;;;;;;;4996658;28;20198;-73
2021/11/01 09:52:24;;;;;;;5.83;3.37;;;;;;;;;;5010041;28;20225;-72
2021/11/01 10:02:02;;;;;;;4.83;2.53;;;;;;;;;;5013686;28;20732;-73
2021/11/01 10:05:07;;;;;;;5.07;2.47;;;;;;;;;;5014025;28;20193;-72
2021/11/01 10:08:17;;;;;;;4.43;2.40;;;;;;;;;;5013718;28;20186;-72
2021/11/01 10:11:25;;;;;;;3.70;2.20;;;;;;;;;;5012504;28;20221;-72
2021/11/01 10:14:29;;;;;;;5.67;2.97;;;;;;;;;;5013105;28;20526;-72
2021/11/01 10:17:36;;;;;;;3.93;2.60;;;;;;;;;;5014065;28;20189;-72
2021/11/01 10:20:50;;;;;;;4.20;2.23;;;;;;;;;;5012985;28;20233;-72
2021/11/01 10:23:55;;;;;;;4.30;2.50;;;;;;;;;;5013059;28;20205;-72
2021/11/01 10:27:00;;;;;;;3.90;2.83;;;;;;;;;;5013051;28;20193;-72
2021/11/01 10:30:15;;;;;;;5.50;2.80;;;;;;;;;;5012318;28;20197;-72
2021/11/01 10:33:20;;;;;;;4.63;3.77;;;;;;;;;;5012490;28;20189;-72
2021/11/01 10:36:33;;;;;;;5.60;2.97;;;;;;;;;;4999606;28;20193;-71
2021/11/01 10:39:37;;;;;;;3.70;2.53;;;;;;;;;;5013518;28;20182;-70
2021/11/01 10:42:45;;;;;;;4.80;2.73;;;;;;;;;;5003763;28;20229;-71
2021/11/01 10:56:57;;;;;;;3.43;2.33;;;;;;;;;;4994395;28;20186;-71
2021/11/01 11:10:52;;;;;;;5.07;2.20;;;;;;;;;;4994084;28;20208;-71
2021/11/01 11:13:20;;;;;;;3.30;2.00;;;;;;;;;;5012756;28;20190;-70
2021/11/01 11:26:58;;;;;;;3.00;2.03;;;;;;;;;;5010011;28;20648;-71
2021/11/01 11:33:50;;;;;;;3.93;2.10;;;;;;;;;;4999976;28;20546;-72
2021/11/01 11:37:43;;;;;;;4.63;2.30;;;;;;;;;;5011997;28;20190;-72
2021/11/01 11:47:59;;;;;;;3.07;1.90;;;;;;;;;;4997083;28;20183;-71
2021/11/01 11:51:10;;;;;;;3.10;2.13;;;;;;;;;;5008370;28;20221;-71
2021/11/01 11:54:14;;;;;;;3.93;2.03;;;;;;;;;;4996559;28;20186;-71
2021/11/01 11:57:29;;;;;;;4.50;2.10;;;;;;;;;;4996830;28;20515;-71
2021/11/01 12:00:36;;;;;;;4.67;2.47;;;;;;;;;;5004407;28;20221;-71
2021/11/01 12:03:40;;;;;;;3.97;2.30;;;;;;;;;;5052845;23;20719;-88
2021/11/01 12:07:00;;;;;;;3.07;1.90;;;;;;;;;;4995553;28;20194;-88
2021/11/01 12:10:12;;;;;;;5.00;2.20;;;;;;;;;;4996380;28;20187;-89
2021/11/01 12:19:47;;;;;;;2.73;1.90;;;;;;;;;;5004249;28;20186;-89
2021/11/01 12:23:00;;;;;;;5.17;2.47;;;;;;;;;;4992976;28;20518;-89
2021/11/01 12:26:14;;;;;;;5.17;2.17;;;;;;;;;;4991851;28;20189;-89
2021/11/01 12:29:20;;;;;;;4.77;2.23;;;;;;;;;;4992508;28;20205;-88
2021/11/01 12:32:24;;;;;;;5.13;2.20;;;;;;;;;;4993124;28;20529;-89
2021/11/01 12:35:31;;;;;;;2.70;2.00;;;;;;;;;;4973624;28;20237;-89
2021/11/01 12:38:48;;;;;;;2.97;1.80;;;;;;;;;;4996420;28;20205;-90
2021/11/01 12:45:55;;;;;;;3.30;1.53;;;;;;;;;;4991516;28;20518;-89
2021/11/01 12:59:02;;;;;;;3.43;1.80;;;;;;;;;;4999734;28;20185;-89
2021/11/01 13:02:14;;;;;;;4.43;1.87;;;;;;;;;;4999443;28;20700;-90
2021/11/01 13:05:22;;;;;;;7.10;2.43;;;;;;;;;;4980202;28;20531;-89
2021/11/01 13:08:34;;;;;;;13.97;7.63;;;;;;;;;;4992157;28;20186;-87
2021/11/01 13:11:59;;;;;;;6.43;4.17;;;;;;;;;;5014202;28;20283;-88
2021/11/01 13:18:31;;;;;;;5.63;3.47;;;;;;;;;;5012896;28;20213;-87
2021/11/01 13:38:08;;;;;;;4.27;3.13;;;;;;;;;;5010381;28;20182;-87
2021/11/01 13:41:16;;;;;;;2.07;1.80;;;;;;;;;;4987354;28;20221;-87
2021/11/01 13:44:24;;;;;;;2.00;1.33;;;;;;;;;;4999029;28;20229;-87
2021/11/01 13:47:39;;;;;;;4.57;2.17;;;;;;;;;;4993559;28;20205;-88
2021/11/01 13:50:44;;;;;;;2.73;1.17;;;;;;;;;;4987583;28;20198;-88
2021/11/01 13:57:05;;;;;;;2.80;2.23;;;;;;;;;;4997963;28;20190;-87
2021/11/01 14:00:25;;;;;;;2.10;1.90;;;;;;;;;;4979027;28;20202;-87
2021/11/01 14:16:45;;;;;;;3.10;2.10;;;;;;;;;;5013524;28;20185;-87
2021/11/01 14:54:45;;;;;;;1.57;1.00;;;;;;;;;;5013613;28;20181;-86
2021/11/01 15:00:54;;;;;;;1.63;1.10;;;;;;;;;;5013478;28;20182;-87
2021/11/01 15:14:31;;;;;;;4.73;1.00;;;;;;;;;;5015254;28;20221;-87
2021/11/01 15:17:48;;;;;;;1.57;1.27;;;;;;;;;;5001096;28;20198;-87
2021/11/01 16:17:25;;;;;;;2.60;1.90;;;;;;;;;;4992413;28;20186;-71
2021/11/01 16:20:29;;;;;;;3.77;2.10;;;;;;;;;;4991700;28;20210;-71
2021/11/01 16:23:34;;;;;;;4.27;2.07;;;;;;;;;;4980421;28;20210;-71
2021/11/01 16:26:39;;;;;;;4.90;2.00;;;;;;;;;;4979752;28;20202;-72
2021/11/01 16:29:57;;;;;;;5.70;1.80;;;;;;;;;;4991886;28;20194;-71
2021/11/01 16:33:07;;;;;;;3.43;1.90;;;;;;;;;;4992065;28;20182;-72
2021/11/01 16:36:25;;;;;;;2.97;1.70;;;;;;;;;;4979391;28;20209;-71
2021/11/01 16:39:44;;;;;;;2.43;1.73;;;;;;;;;;4972639;28;20191;-71
2021/11/01 16:42:48;;;;;;;3.70;3.23;;;;;;;;;;4989177;28;20222;-71
2021/11/01 16:45:55;;;;;;;3.20;2.37;;;;;;;;;;4991894;28;20659;-71
2021/11/01 16:49:00;;;;;;;3.83;2.33;;;;;;;;;;4991574;28;20546;-71
2021/11/01 16:52:14;;;;;;;1.67;1.50;;;;;;;;;;4981238;28;20211;-71
2021/11/01 16:55:21;;;;;;;4.07;1.40;;;;;;;;;;5013156;28;20558;-71
2021/11/01 16:58:40;;;;;;;2.70;1.40;;;;;;;;;;4991803;28;20182;-71
2021/11/01 17:01:51;;;;;;;2.27;1.40;;;;;;;;;;4991405;28;20226;-71
2021/11/01 17:24:57;;;;;;;3.17;1.90;;;;;;;;;;4991063;28;20195;-72
2021/11/01 18:45:47;;;;;;;1.20;0.70;;;;;;;;;;4978126;28;20206;-73
2021/11/01 18:52:19;;;;;;;0.70;0.63;;;;;;;;;;4986857;28;20693;-72
2021/11/01 18:55:24;;;;;;;1.50;0.67;;;;;;;;;;4990061;28;20550;-72
2021/11/01 18:58:31;;;;;;;1.63;0.87;;;;;;;;;;4977903;28;20209;-72
2021/11/01 19:01:38;;;;;;;0.90;0.70;;;;;;;;;;4989608;28;20225;-72
2021/11/01 19:05:00;;;;;;;0.67;0.67;;;;;;;;;;4990080;28;20186;-72
2021/11/01 19:15:23;;;;;;;1.67;0.70;;;;;;;;;;4990019;28;20202;-72
2021/11/01 20:05:39;;;;;;;1.63;1.00;;;;;;;;;;4980804;28;20202;-72
2021/11/01 20:09:20;;;;;;;2.50;1.30;;;;;;;;;;4992888;28;20206;-72
2021/11/01 20:12:38;;;;;;;2.63;1.50;;;;;;;;;;4980011;28;20221;-72
2021/11/01 21:27:41;;;;;;;0.90;0.80;;;;;;;;;;4991228;28;20194;-71
2021/11/01 21:30:45;;;;;;;0.93;0.73;;;;;;;;;;4990718;28;20218;-71
2021/11/01 21:33:53;;;;;;;0.93;0.80;;;;;;;;;;4990835;28;20194;-71
2021/11/01 21:36:59;;;;;;;5.33;1.10;;;;;;;;;;4991012;28;20190;-71
2021/11/01 21:40:10;;;;;;;2.67;0.80;;;;;;;;;;4990974;28;20190;-71
2021/11/01 21:43:15;;;;;;;0.70;0.70;;;;;;;;;;4990798;28;20229;-71
2021/11/01 21:46:19;;;;;;;1.83;0.57;;;;;;;;;;4990431;28;20202;-72
2021/11/01 21:49:24;;;;;;;1.03;0.60;;;;;;;;;;4978457;28;20529;-72
2021/11/01 21:52:29;;;;;;;2.50;0.70;;;;;;;;;;4990267;28;20693;-72
2021/11/01 21:55:33;;;;;;;1.63;0.70;;;;;;;;;;4988191;28;20194;-71
2021/11/01 21:58:56;;;;;;;0.87;0.73;;;;;;;;;;4990685;28;20545;-71
2021/11/01 22:19:42;;;;;;;1.53;0.80;;;;;;;;;;5002627;28;20209;-71
2021/11/01 22:26:24;;;;;;;1.53;0.87;;;;;;;;;;4993908;28;20190;-71
2021/11/01 22:39:11;;;;;;;0.87;0.80;;;;;;;;;;4993720;28;20190;-71
2021/11/01 22:55:39;;;;;;;1.53;0.83;;;;;;;;;;4992436;28;20530;-71
2021/11/01 22:58:44;;;;;;;1.90;1.00;;;;;;;;;;4994142;28;20185;-71
2021/11/01 23:01:49;;;;;;;1.90;1.30;;;;;;;;;;4992404;28;20222;-71
2021/11/01 23:05:10;;;;;;;1.50;1.10;;;;;;;;;;4993503;28;20214;-71
2021/11/01 23:31:54;;;;;;;2.23;1.40;;;;;;;;;;4990031;28;20573;-71
2021/11/01 23:34:58;;;;;;;1.47;1.37;;;;;;;;;;4997170;28;20186;-71
2021/11/01 23:38:03;;;;;;;1.60;1.40;;;;;;;;;;4996561;28;20198;-71
2021/11/01 23:41:07;;;;;;;2.27;1.30;;;;;;;;;;4996594;28;20229;-71
2021/11/01 23:44:11;;;;;;;2.40;1.70;;;;;;;;;;4996644;28;20218;-71
2021/11/01 23:47:15;;;;;;;2.03;1.77;;;;;;;;;;4995852;28;20206;-71
2021/11/01 23:50:19;;;;;;;1.87;1.67;;;;;;;;;;4997210;28;20182;-71
2021/11/01 23:56:48;;;;;;;2.00;1.77;;;;;;;;;;4981368;28;20194;-71
2021/11/01 23:59:52;;;;;;;2.00;1.70;;;;;;;;;;4996829;28;20190;-71
